Time;durP1;ratioP1;P1;durP2;ratioP2;P2;SDS_P1;SDS_P2;PMS_P1;PMS_P2;Temp;Humidity;BMP_temperature;BMP_pressure;BME280_temperature;BME280_humidity;BME280_pressure;Samples;Min_cycle;Max_cycle;Signal;HPM_P1;HPM_P2
2021/06/02 00:00:43;;;;;;;7.37;5.20;;;16.30;65.00;;;;;;5045163;28;20564;-47
2021/06/02 00:03:31;;;;;;;7.60;5.47;;;16.20;65.20;;;;;;5040834;28;20458;-46
2021/06/02 00:06:17;;;;;;;6.30;5.03;;;16.20;65.40;;;;;;5044298;28;20524;-46
2021/06/02 00:09:03;;;;;;;7.57;5.70;;;16.20;65.50;;;;;;5038656;28;20486;-47
2021/06/02 00:11:34;;;;;;;7.23;5.53;;;16.20;65.50;;;;;;5046550;28;20452;-46
2021/06/02 00:14:04;;;;;;;8.90;5.90;;;16.10;65.70;;;;;;5043858;28;20495;-46
2021/06/02 00:16:32;;;;;;;9.07;5.73;;;16.10;65.70;;;;;;5042615;28;20482;-46
2021/06/02 00:19:01;;;;;;;7.30;5.33;;;16.10;65.70;;;;;;5042389;28;20449;-46
2021/06/02 00:21:29;;;;;;;8.07;5.20;;;16.00;65.70;;;;;;5044029;28;20458;-46
2021/06/02 00:23:57;;;;;;;6.90;5.70;;;16.00;65.90;;;;;;5041900;28;20458;-46
2021/06/02 00:26:26;;;;;;;8.40;5.83;;;15.90;66.10;;;;;;5045114;28;20884;-46
2021/06/02 00:28:54;;;;;;;8.83;6.03;;;15.90;66.20;;;;;;5042377;28;20805;-46
2021/06/02 00:31:23;;;;;;;6.33;5.67;;;15.90;66.30;;;;;;5043487;28;20447;-47
2021/06/02 00:33:51;;;;;;;10.80;5.40;;;15.80;66.30;;;;;;5044660;28;20491;-47
2021/06/02 00:36:23;;;;;;;6.33;5.67;;;15.80;66.50;;;;;;5043099;28;20454;-47
2021/06/02 00:38:51;;;;;;;8.00;5.43;;;15.70;66.60;;;;;;5044185;28;20455;-47
2021/06/02 00:41:19;;;;;;;7.37;5.63;;;15.70;66.70;;;;;;5044370;28;20454;-47
2021/06/02 00:43:48;;;;;;;6.10;5.33;;;15.70;66.70;;;;;;5043332;28;20469;-46
2021/06/02 00:46:19;;;;;;;7.07;5.17;;;15.70;66.60;;;;;;5043657;28;20463;-46
2021/06/02 00:48:47;;;;;;;6.27;5.70;;;15.70;66.80;;;;;;5045911;28;20459;-46
2021/06/02 00:51:18;;;;;;;5.70;5.20;;;15.60;66.90;;;;;;5043363;28;20489;-46
2021/06/02 00:53:46;;;;;;;6.33;5.73;;;15.60;67.10;;;;;;5042697;28;20839;-46
2021/06/02 00:56:17;;;;;;;5.60;5.10;;;15.60;67.00;;;;;;5040459;28;20818;-46
2021/06/02 00:58:51;;;;;;;6.40;5.80;;;15.60;67.10;;;;;;5042257;28;21093;-46
2021/06/02 01:01:20;;;;;;;5.87;5.37;;;15.60;66.90;;;;;;5042285;28;20458;-46
2021/06/02 01:03:49;;;;;;;6.10;5.50;;;15.60;67.00;;;;;;5043990;28;20459;-46
2021/06/02 01:06:18;;;;;;;4.70;4.30;;;15.60;66.90;;;;;;5043931;28;20808;-46
2021/06/02 01:08:47;;;;;;;5.40;4.90;;;15.50;67.00;;;;;;5043105;28;21333;-46
2021/06/02 01:11:16;;;;;;;5.43;4.67;;;15.50;67.00;;;;;;5042675;28;20454;-46
2021/06/02 01:13:44;;;;;;;4.93;4.53;;;15.50;67.00;;;;;;5042455;28;20491;-46
2021/06/02 01:16:12;;;;;;;7.03;5.47;;;15.40;67.10;;;;;;5031117;28;20456;-46
2021/06/02 01:18:40;;;;;;;6.07;5.30;;;15.40;67.20;;;;;;5044886;28;20786;-46
2021/06/02 01:21:18;;;;;;;5.83;5.33;;;15.40;67.30;;;;;;5042948;28;20958;-46
2021/06/02 01:23:46;;;;;;;5.73;5.23;;;15.30;67.40;;;;;;5044105;28;20977;-46
2021/06/02 01:26:14;;;;;;;5.57;5.07;;;15.30;67.50;;;;;;5046085;28;20937;-46
2021/06/02 01:28:43;;;;;;;6.87;5.40;;;15.30;67.60;;;;;;5042538;28;21029;-46
2021/06/02 01:31:19;;;;;;;6.70;5.40;;;15.20;67.70;;;;;;5042984;28;20460;-46
2021/06/02 01:34:06;;;;;;;5.23;4.73;;;15.30;67.70;;;;;;5043835;28;20493;-46
2021/06/02 01:37:15;;;;;;;8.70;6.43;;;15.20;67.90;;;;;;5043955;28;20453;-46
2021/06/02 01:40:02;;;;;;;5.53;4.93;;;15.20;68.00;;;;;;5031210;28;20943;-46
2021/06/02 01:42:37;;;;;;;9.93;5.40;;;15.10;68.20;;;;;;5045817;28;20458;-46
2021/06/02 01:45:38;;;;;;;5.87;5.37;;;15.10;68.40;;;;;;5045737;28;20453;-46
2021/06/02 01:48:35;;;;;;;6.20;5.60;;;15.10;68.50;;;;;;5051014;28;20470;-46
2021/06/02 01:51:41;;;;;;;7.50;5.70;;;15.00;68.50;;;;;;5049947;28;20451;-46
2021/06/02 01:54:30;;;;;;;6.03;5.47;;;15.00;68.60;;;;;;5045921;28;20497;-46
2021/06/02 01:57:02;;;;;;;5.67;5.07;;;15.00;68.70;;;;;;5044962;28;20458;-46
2021/06/02 02:00:28;;;;;;;5.60;5.10;;;15.00;68.80;;;;;;5047668;28;20454;-47
2021/06/02 02:03:35;;;;;;;5.97;5.27;;;15.00;68.80;;;;;;5046282;28;20461;-46
2021/06/02 02:06:35;;;;;;;5.97;5.40;;;14.90;68.80;;;;;;5039854;28;20462;-46
2021/06/02 02:09:18;;;;;;;7.00;5.80;;;14.90;68.80;;;;;;4978832;28;20481;-46
2021/06/02 02:11:46;;;;;;;6.20;5.60;;;14.80;69.00;;;;;;5045448;28;20470;-46
2021/06/02 02:14:25;;;;;;;4.93;4.37;;;14.80;69.00;;;;;;5047848;28;20482;-46
2021/06/02 02:16:56;;;;;;;7.20;5.50;;;14.80;69.10;;;;;;5044988;28;20470;-46
2021/06/02 02:19:39;;;;;;;5.43;4.93;;;14.80;69.10;;;;;;5045542;28;20450;-46
2021/06/02 02:22:26;;;;;;;7.73;5.43;;;14.80;69.20;;;;;;5045261;28;20452;-46
2021/06/02 02:25:32;;;;;;;5.90;5.40;;;14.70;69.30;;;;;;5049443;28;20469;-46
2021/06/02 02:28:00;;;;;;;8.13;5.40;;;14.70;69.50;;;;;;5040232;28;20788;-46
2021/06/02 02:30:39;;;;;;;6.17;5.57;;;14.70;69.60;;;;;;5047069;28;20808;-46
2021/06/02 02:33:45;;;;;;;6.10;5.23;;;14.60;69.60;;;;;;5043477;28;20560;-46
2021/06/02 02:36:13;;;;;;;5.57;5.00;;;14.60;69.80;;;;;;5023419;28;20473;-46
2021/06/02 02:39:01;;;;;;;7.10;5.70;;;14.60;69.90;;;;;;5046408;28;20478;-46
2021/06/02 02:41:38;;;;;;;5.40;4.90;;;14.60;69.90;;;;;;5050124;28;20465;-46
2021/06/02 02:44:32;;;;;;;6.70;4.90;;;14.50;70.10;;;;;;5046493;28;20463;-46
2021/06/02 02:47:19;;;;;;;6.13;5.53;;;14.50;70.20;;;;;;5045282;28;20471;-46
2021/06/02 02:49:59;;;;;;;6.83;5.40;;;14.50;70.30;;;;;;5045451;28;20458;-46
2021/06/02 02:52:52;;;;;;;8.80;5.20;;;14.50;70.40;;;;;;5045881;28;22173;-46
2021/06/02 02:55:40;;;;;;;5.97;5.00;;;14.40;70.50;;;;;;5046188;28;20450;-46
2021/06/02 02:58:45;;;;;;;5.93;5.33;;;14.50;70.60;;;;;;5043299;28;20463;-46
2021/06/02 03:01:36;;;;;;;5.73;5.23;;;14.40;70.70;;;;;;5047083;28;20461;-49
2021/06/02 03:04:10;;;;;;;7.47;5.53;;;14.40;70.70;;;;;;5045329;28;20458;-49
2021/06/02 03:06:46;;;;;;;5.90;5.10;;;14.40;70.50;;;;;;5045377;28;21185;-49
2021/06/02 03:10:02;;;;;;;6.47;5.10;;;14.40;70.30;;;;;;5045346;28;20846;-49
2021/06/02 03:12:46;;;;;;;6.30;5.70;;;14.40;70.60;;;;;;5021636;28;20833;-49
2021/06/02 03:15:42;;;;;;;5.60;5.10;;;14.30;70.70;;;;;;5046502;28;20498;-49
2021/06/02 03:18:16;;;;;;;6.63;5.80;;;14.30;71.00;;;;;;5044936;28;20463;-49
2021/06/02 03:21:19;;;;;;;5.33;4.93;;;14.20;71.10;;;;;;5044919;28;20450;-49
2021/06/02 03:24:03;;;;;;;6.50;5.23;;;14.30;71.00;;;;;;5045131;28;20478;-49
2021/06/02 03:26:36;;;;;;;4.73;4.33;;;14.20;71.10;;;;;;5044274;28;20898;-49
2021/06/02 03:29:16;;;;;;;5.13;4.60;;;14.20;71.10;;;;;;5046510;28;20977;-49
2021/06/02 03:32:02;;;;;;;7.03;5.53;;;14.20;71.10;;;;;;5047587;28;20469;-49
2021/06/02 03:34:42;;;;;;;6.40;4.97;;;14.10;71.20;;;;;;5044800;28;21186;-49
2021/06/02 03:37:40;;;;;;;5.63;5.10;;;14.10;71.20;;;;;;5046008;28;20455;-49
2021/06/02 03:40:20;;;;;;;5.77;5.10;;;14.10;71.20;;;;;;4975879;28;20461;-49
2021/06/02 03:43:06;;;;;;;6.00;5.00;;;14.10;71.40;;;;;;5048285;28;20458;-49
2021/06/02 03:45:57;;;;;;;6.10;5.17;;;14.00;71.60;;;;;;5043918;28;20467;-49
2021/06/02 03:48:43;;;;;;;6.77;5.50;;;14.00;71.60;;;;;;5044349;28;20458;-49
2021/06/02 03:51:57;;;;;;;5.50;5.00;;;14.00;71.70;;;;;;5043281;28;20811;-49
2021/06/02 03:54:37;;;;;;;5.67;4.90;;;14.00;71.80;;;;;;4981241;28;21032;-49
2021/06/02 03:58:01;;;;;;;5.60;5.10;;;13.90;71.80;;;;;;5041010;28;20458;-49
2021/06/02 04:00:37;;;;;;;7.10;6.40;;;13.90;72.10;;;;;;5026528;28;20484;-49
2021/06/02 04:03:21;;;;;;;5.60;4.93;;;13.90;72.20;;;;;;5046579;28;20958;-49
2021/06/02 04:05:56;;;;;;;6.67;5.33;;;13.90;72.30;;;;;;5044912;28;20691;-49
2021/06/02 04:08:36;;;;;;;6.77;5.37;;;13.90;72.40;;;;;;5044187;28;20482;-49
2021/06/02 04:11:26;;;;;;;6.00;5.20;;;13.90;72.50;;;;;;5041941;28;20458;-49
2021/06/02 04:13:58;;;;;;;6.80;5.20;;;13.90;72.50;;;;;;5046294;28;20485;-49
2021/06/02 04:16:35;;;;;;;6.07;5.30;;;13.90;72.50;;;;;;5044910;28;20452;-49
2021/06/02 04:19:07;;;;;;;5.90;5.03;;;14.00;72.60;;;;;;5040448;28;20454;-49
2021/06/02 04:21:37;;;;;;;6.83;5.60;;;14.00;72.60;;;;;;5042930;28;20465;-49
2021/06/02 04:24:12;;;;;;;8.40;5.77;;;14.00;72.40;;;;;;5047788;28;20462;-49
2021/06/02 04:26:40;;;;;;;6.33;5.40;;;14.00;72.30;;;;;;5044035;28;20465;-49
2021/06/02 04:29:11;;;;;;;6.20;5.60;;;14.00;72.60;;;;;;5044901;28;20919;-49
2021/06/02 04:31:52;;;;;;;8.00;5.57;;;14.10;72.60;;;;;;5042704;28;20458;-49
2021/06/02 04:34:24;;;;;;;6.30;5.10;;;14.10;72.70;;;;;;5045470;28;20502;-49
2021/06/02 04:36:58;;;;;;;10.33;5.30;;;14.10;72.50;;;;;;5045323;28;20799;-49
2021/06/02 04:39:28;;;;;;;6.30;5.10;;;14.10;72.70;;;;;;5045196;28;20499;-49
2021/06/02 04:41:59;;;;;;;6.37;5.37;;;14.20;72.70;;;;;;5043978;28;20954;-49
2021/06/02 04:44:29;;;;;;;6.90;5.97;;;14.20;72.70;;;;;;5046335;28;20463;-49
2021/06/02 04:46:57;;;;;;;6.60;5.03;;;14.30;72.40;;;;;;5045560;28;20450;-49
2021/06/02 04:49:44;;;;;;;7.53;5.63;;;14.30;72.50;;;;;;5042691;28;20466;-49
2021/06/02 04:52:12;;;;;;;6.27;5.67;;;14.30;72.40;;;;;;5040792;28;21116;-49
2021/06/02 04:54:59;;;;;;;6.97;5.13;;;14.40;72.40;;;;;;5046571;28;20497;-49
2021/06/02 04:58:14;;;;;;;6.47;5.80;;;14.40;72.40;;;;;;5044887;28;20525;-49
2021/06/02 05:00:57;;;;;;;6.27;5.67;;;14.50;72.50;;;;;;5046077;28;20458;-49
2021/06/02 05:03:53;;;;;;;6.10;5.50;;;14.60;72.20;;;;;;5041694;28;20466;-49
2021/06/02 05:06:40;;;;;;;6.57;5.33;;;14.70;72.20;;;;;;5044406;28;20458;-49
2021/06/02 05:09:45;;;;;;;7.10;5.97;;;14.70;72.30;;;;;;5040965;28;20842;-49
2021/06/02 05:12:38;;;;;;;7.30;6.30;;;14.80;72.30;;;;;;5044240;28;20470;-49
2021/06/02 05:15:50;;;;;;;6.37;5.43;;;14.80;72.30;;;;;;5044033;28;20490;-49
2021/06/02 05:18:41;;;;;;;8.83;5.90;;;14.90;72.40;;;;;;5047702;28;20470;-49
2021/06/02 05:24:07;;;;;;;7.60;5.60;;;15.00;72.30;;;;;;5048470;28;20470;-49
2021/06/02 05:26:50;;;;;;;7.57;6.07;;;15.10;72.20;;;;;;5047633;28;20458;-50
2021/06/02 05:29:36;;;;;;;9.33;6.27;;;15.20;72.40;;;;;;5048058;28;20455;-50
2021/06/02 05:32:39;;;;;;;5.90;4.90;;;15.30;72.30;;;;;;5048108;28;20454;-49
2021/06/02 05:35:20;;;;;;;6.30;5.60;;;15.40;71.30;;;;;;4989506;28;20491;-49
2021/06/02 05:38:09;;;;;;;6.30;5.07;;;15.60;70.10;;;;;;5042135;28;20462;-49
2021/06/02 05:40:58;;;;;;;9.37;5.83;;;15.70;70.00;;;;;;5045866;28;20459;-49
2021/06/02 05:43:48;;;;;;;6.73;6.13;;;15.80;69.80;;;;;;5048639;28;20446;-49
2021/06/02 05:46:46;;;;;;;9.40;6.03;;;15.90;69.20;;;;;;5048600;28;20927;-49
2021/06/02 05:49:41;;;;;;;6.77;5.23;;;16.00;69.40;;;;;;5047824;28;20466;-49
2021/06/02 05:52:57;;;;;;;7.40;6.40;;;16.20;69.10;;;;;;5049341;28;21215;-49
2021/06/02 05:55:55;;;;;;;6.87;6.17;;;16.30;69.10;;;;;;5045173;28;20487;-49
2021/06/02 05:59:05;;;;;;;10.03;5.93;;;16.50;68.30;;;;;;5046712;28;20442;-50
2021/06/02 06:02:12;;;;;;;9.40;6.00;;;16.60;66.80;;;;;;5034340;28;20466;-50
2021/06/02 06:04:55;;;;;;;6.70;6.03;;;16.80;66.70;;;;;;5046218;28;20455;-50
2021/06/02 06:08:01;;;;;;;7.03;5.43;;;16.90;66.80;;;;;;5045245;28;20878;-50
2021/06/02 06:10:46;;;;;;;6.03;5.37;;;17.00;66.70;;;;;;5046350;28;20473;-50
2021/06/02 06:13:48;;;;;;;10.40;6.57;;;17.20;65.90;;;;;;5048665;28;20454;-50
2021/06/02 06:16:26;;;;;;;7.47;5.50;;;17.30;64.30;;;;;;5044007;28;20458;-50
2021/06/02 06:19:15;;;;;;;7.60;5.23;;;17.50;63.70;;;;;;5043016;28;20465;-49
2021/06/02 06:22:20;;;;;;;6.37;5.20;;;17.60;63.40;;;;;;5041949;28;20450;-50
2021/06/02 06:24:56;;;;;;;9.10;5.93;;;17.70;62.90;;;;;;5046234;28;20461;-50
2021/06/02 06:27:40;;;;;;;9.00;5.33;;;17.90;62.40;;;;;;5046538;28;20459;-50
2021/06/02 06:30:25;;;;;;;7.30;5.20;;;18.00;62.00;;;;;;5042776;28;20472;-50
2021/06/02 06:32:56;;;;;;;5.63;4.63;;;18.10;62.00;;;;;;5044570;28;20470;-50
2021/06/02 06:35:26;;;;;;;9.40;5.90;;;18.30;61.80;;;;;;5044782;28;20506;-48
2021/06/02 06:37:57;;;;;;;6.03;4.37;;;18.40;62.20;;;;;;5048428;28;20461;-49
2021/06/02 06:40:30;;;;;;;9.70;4.87;;;18.50;61.80;;;;;;5044833;28;20465;-50
2021/06/02 06:43:01;;;;;;;5.73;5.20;;;18.70;60.10;;;;;;5044498;28;20481;-50
2021/06/02 06:45:34;;;;;;;6.50;4.20;;;18.80;59.30;;;;;;5046954;28;20465;-49
2021/06/02 06:48:08;;;;;;;5.30;4.33;;;19.00;58.60;;;;;;5041901;28;20454;-49
2021/06/02 06:50:36;;;;;;;8.50;4.70;;;19.10;58.10;;;;;;5044208;28;20473;-50
2021/06/02 06:53:06;;;;;;;8.17;4.40;;;19.30;58.20;;;;;;5043969;28;20467;-50
2021/06/02 06:55:36;;;;;;;6.97;5.10;;;19.40;58.20;;;;;;5044014;28;20492;-50
2021/06/02 06:58:06;;;;;;;4.17;3.80;;;19.60;57.00;;;;;;5047270;28;20463;-50
2021/06/02 07:00:34;;;;;;;6.83;4.07;;;19.80;55.60;;;;;;5042926;28;20939;-49
2021/06/02 07:03:03;;;;;;;4.57;3.83;;;19.90;54.80;;;;;;5044099;28;20951;-50
2021/06/02 07:05:31;;;;;;;5.33;3.60;;;20.10;54.60;;;;;;5044061;28;21256;-50
2021/06/02 07:08:02;;;;;;;8.07;4.60;;;20.30;54.50;;;;;;4980870;28;1777092;-50
2021/06/02 07:10:30;;;;;;;5.10;4.50;;;20.50;54.80;;;;;;5045397;28;20709;-50
2021/06/02 07:12:58;;;;;;;7.83;4.17;;;20.60;55.60;;;;;;5046735;28;20466;-50
2021/06/02 07:15:29;;;;;;;4.60;3.80;;;20.70;55.80;;;;;;5044557;28;20482;-50
2021/06/02 07:17:59;;;;;;;4.77;4.20;;;20.90;54.60;;;;;;5046282;28;20470;-50
2021/06/02 07:20:30;;;;;;;5.10;3.80;;;21.00;53.90;;;;;;5045443;28;20785;-49
2021/06/02 07:23:01;;;;;;;5.27;4.20;;;21.20;53.50;;;;;;5046023;28;20461;-50
2021/06/02 07:25:33;;;;;;;4.80;4.30;;;21.40;52.70;;;;;;5044049;28;20462;-50
2021/06/02 07:28:08;;;;;;;4.30;3.70;;;21.60;51.60;;;;;;5043913;28;20452;-50
2021/06/02 07:30:36;;;;;;;5.17;3.83;;;21.80;51.20;;;;;;5043731;28;20465;-50
2021/06/02 07:33:04;;;;;;;4.87;4.10;;;22.00;51.30;;;;;;5048303;28;20463;-49
2021/06/02 07:35:34;;;;;;;6.97;4.90;;;22.20;51.10;;;;;;5045985;28;20593;-50
2021/06/02 07:38:02;;;;;;;4.20;3.80;;;22.30;51.10;;;;;;5044047;28;20466;-50
2021/06/02 07:40:30;;;;;;;4.13;3.53;;;22.50;51.10;;;;;;5045711;28;21093;-50
2021/06/02 07:42:57;;;;;;;4.63;3.57;;;22.60;50.00;;;;;;5045722;28;20495;-50
2021/06/02 07:45:25;;;;;;;7.40;4.13;;;22.70;50.30;;;;;;5045312;28;20458;-50
2021/06/02 07:47:53;;;;;;;8.40;3.87;;;22.80;50.70;;;;;;5040456;28;20466;-50
2021/06/02 07:50:23;;;;;;;4.63;3.63;;;22.90;49.90;;;;;;5040647;28;20484;-50
2021/06/02 07:52:51;;;;;;;4.27;3.70;;;23.10;49.40;;;;;;5039814;28;20455;-50
2021/06/02 07:55:26;;;;;;;6.37;4.43;;;23.30;48.50;;;;;;5036864;28;20522;-50
2021/06/02 07:57:55;;;;;;;5.10;4.50;;;23.50;48.30;;;;;;5040688;28;20442;-50
2021/06/02 08:00:23;;;;;;;5.00;3.67;;;23.70;47.70;;;;;;5038721;28;20487;-50
2021/06/02 08:02:52;;;;;;;5.57;3.50;;;23.90;47.10;;;;;;5040894;28;20458;-50
2021/06/02 08:05:20;;;;;;;8.20;4.20;;;24.00;46.70;;;;;;5039256;28;20848;-50
2021/06/02 08:07:49;;;;;;;4.60;3.40;;;24.20;46.70;;;;;;5042170;28;20919;-49
2021/06/02 08:10:18;;;;;;;5.07;3.50;;;24.30;44.30;;;;;;5044661;28;20450;-50
2021/06/02 08:12:48;;;;;;;3.70;3.40;;;24.40;44.10;;;;;;5042453;28;20515;-50
2021/06/02 08:15:17;;;;;;;6.63;3.63;;;24.50;43.60;;;;;;5043343;28;21047;-49
2021/06/02 08:17:45;;;;;;;5.17;3.73;;;24.60;43.90;;;;;;5041204;28;20458;-50
2021/06/02 08:20:15;;;;;;;5.20;3.80;;;24.80;43.50;;;;;;5041415;28;20952;-50
2021/06/02 08:22:44;;;;;;;8.20;3.80;;;24.90;43.60;;;;;;5042229;28;20454;-50
2021/06/02 08:25:15;;;;;;;6.20;2.90;;;25.00;43.70;;;;;;5043275;28;20833;-50
2021/06/02 08:27:45;;;;;;;4.80;3.60;;;25.20;43.90;;;;;;5043596;28;20470;-50
2021/06/02 08:30:15;;;;;;;3.97;3.43;;;25.30;43.90;;;;;;5040904;28;20444;-50
2021/06/02 08:32:46;;;;;;;4.00;3.60;;;25.40;43.50;;;;;;5040379;28;20461;-50
2021/06/02 08:35:16;;;;;;;4.50;3.50;;;25.50;41.90;;;;;;5042248;28;20539;-50
2021/06/02 08:37:46;;;;;;;4.83;2.97;;;25.60;41.60;;;;;;5042900;28;20445;-50
2021/06/02 08:40:16;;;;;;;4.53;3.50;;;25.70;40.20;;;;;;5041988;28;20883;-50
2021/06/02 08:42:46;;;;;;;4.10;2.80;;;25.80;40.40;;;;;;5043645;28;20450;-50
2021/06/02 08:45:17;;;;;;;2.70;2.50;;;25.90;40.50;;;;;;5044453;28;20541;-50
2021/06/02 08:47:48;;;;;;;3.53;3.23;;;26.00;40.10;;;;;;5042923;28;20469;-50
2021/06/02 08:50:19;;;;;;;5.57;3.20;;;26.20;40.20;;;;;;5043032;28;20438;-50
2021/06/02 08:52:48;;;;;;;6.77;3.00;;;26.30;38.50;;;;;;5041628;28;20461;-50
2021/06/02 08:55:21;;;;;;;3.83;2.47;;;26.50;38.10;;;;;;5044895;28;20478;-50
2021/06/02 08:57:51;;;;;;;2.90;2.70;;;26.50;38.20;;;;;;5038928;28;20947;-50
2021/06/02 09:00:22;;;;;;;7.37;2.90;;;26.60;38.30;;;;;;5040810;28;20450;-50
2021/06/02 09:02:54;;;;;;;5.43;3.20;;;26.60;38.40;;;;;;5037754;28;20461;-50
2021/06/02 09:05:24;;;;;;;4.23;3.40;;;26.70;37.80;;;;;;5043783;28;20465;-50
2021/06/02 09:07:54;;;;;;;4.23;3.20;;;26.90;37.80;;;;;;5036092;28;20489;-50
2021/06/02 09:10:25;;;;;;;4.17;3.17;;;27.00;37.70;;;;;;5042358;28;20997;-50
2021/06/02 09:12:59;;;;;;;7.67;3.33;;;27.20;38.10;;;;;;5039988;28;20454;-50
2021/06/02 09:15:35;;;;;;;3.70;3.40;;;27.40;37.40;;;;;;5038059;28;20485;-50
2021/06/02 09:18:09;;;;;;;5.17;3.33;;;27.60;36.80;;;;;;5036863;28;20531;-50
2021/06/02 09:20:43;;;;;;;2.80;2.60;;;27.90;36.90;;;;;;5038869;28;20431;-50
2021/06/02 09:23:36;;;;;;;4.03;3.13;;;28.10;35.70;;;;;;5038648;28;21015;-50
2021/06/02 09:26:12;;;;;;;3.07;2.87;;;28.40;35.00;;;;;;5036614;28;20881;-50
2021/06/02 09:28:46;;;;;;;3.90;2.70;;;28.70;34.20;;;;;;5039226;28;20652;-50
2021/06/02 09:31:25;;;;;;;2.90;2.70;;;29.10;34.40;;;;;;5039996;28;20643;-50
2021/06/02 09:33:56;;;;;;;3.10;2.90;;;29.50;33.30;;;;;;5041087;28;20219;-50
2021/06/02 09:36:29;;;;;;;3.20;2.90;;;29.90;32.60;;;;;;5034228;28;20227;-50
2021/06/02 09:39:00;;;;;;;4.40;3.00;;;30.30;32.50;;;;;;5039018;28;20212;-50
2021/06/02 09:41:29;;;;;;;2.63;2.42;;;30.60;32.30;;;;;;5032450;28;20767;-50
2021/06/02 09:43:57;;;;;;;3.25;2.72;;;31.10;31.90;;;;;;5037827;28;20223;-50
2021/06/02 09:46:25;;;;;;;3.28;3.00;;;31.40;31.80;;;;;;5037736;28;20220;-50
2021/06/02 09:49:03;;;;;;;2.85;2.65;;;31.60;31.70;;;;;;5034761;28;20207;-50
2021/06/02 09:51:39;;;;;;;4.00;3.55;;;32.00;31.50;;;;;;5039103;28;20211;-50
2021/06/02 09:54:10;;;;;;;3.17;2.88;;;32.20;31.20;;;;;;5040513;28;20207;-50
2021/06/02 09:56:43;;;;;;;3.58;2.92;;;32.40;31.10;;;;;;5038431;28;20274;-49
2021/06/02 09:59:12;;;;;;;5.90;3.03;;;32.50;31.10;;;;;;5039474;28;20204;-50
2021/06/02 10:02:01;;;;;;;2.95;2.42;;;32.40;31.30;;;;;;5040659;28;20596;-50
2021/06/02 10:04:37;;;;;;;4.40;2.50;;;32.10;30.50;;;;;;5043069;28;20266;-49
2021/06/02 10:07:17;;;;;;;3.10;2.80;;;31.70;30.80;;;;;;5040524;28;20203;-50
2021/06/02 10:09:46;;;;;;;4.32;2.88;;;31.30;31.80;;;;;;5042793;28;20230;-49
2021/06/02 10:12:15;;;;;;;3.13;2.83;;;30.70;32.40;;;;;;5040130;28;20200;-50
2021/06/02 10:15:05;;;;;;;3.63;3.25;;;30.30;32.90;;;;;;5041927;28;20257;-50
2021/06/02 10:17:38;;;;;;;3.30;3.00;;;29.70;33.50;;;;;;5039076;28;20200;-50
2021/06/02 10:20:13;;;;;;;2.83;2.63;;;29.40;34.20;;;;;;5040632;28;20821;-50
2021/06/02 10:22:43;;;;;;;9.53;4.17;;;29.10;34.60;;;;;;5039588;28;20207;-50
2021/06/02 10:25:11;;;;;;;3.27;2.93;;;28.80;35.10;;;;;;5041051;28;20684;-50
2021/06/02 10:27:39;;;;;;;5.30;3.10;;;28.50;35.40;;;;;;5041746;28;20207;-50
2021/06/02 10:30:08;;;;;;;3.03;2.80;;;28.30;36.10;;;;;;5039730;28;20446;-50
2021/06/02 10:32:37;;;;;;;4.53;3.37;;;28.10;36.40;;;;;;5043056;28;20298;-49
2021/06/02 10:35:06;;;;;;;4.33;3.20;;;28.00;36.60;;;;;;5040661;28;20234;-49
2021/06/02 10:37:42;;;;;;;3.50;3.20;;;27.90;36.80;;;;;;5043253;28;20454;-49
2021/06/02 10:40:19;;;;;;;3.50;3.17;;;27.70;37.20;;;;;;5040056;28;20461;-50
2021/06/02 10:42:57;;;;;;;3.10;2.90;;;27.50;37.90;;;;;;5040992;28;20799;-50
2021/06/02 10:45:48;;;;;;;3.50;3.20;;;27.40;37.90;;;;;;5043335;28;20680;-50
2021/06/02 10:48:46;;;;;;;3.73;2.60;;;27.30;37.90;;;;;;5037501;28;20785;-50
2021/06/02 10:51:41;;;;;;;4.07;3.67;;;27.20;37.30;;;;;;5038277;28;20466;-50
2021/06/02 10:54:21;;;;;;;3.73;3.23;;;27.10;37.80;;;;;;5042911;28;20468;-50
2021/06/02 10:56:55;;;;;;;5.63;3.57;;;27.00;38.10;;;;;;5039102;28;20505;-50
2021/06/02 10:59:32;;;;;;;5.93;3.00;;;27.00;37.80;;;;;;5043255;28;20491;-50
2021/06/02 11:02:06;;;;;;;2.80;2.50;;;26.90;37.70;;;;;;5042814;28;20457;-50
2021/06/02 11:04:37;;;;;;;2.77;2.57;;;26.80;36.20;;;;;;5043796;28;20466;-50
2021/06/02 11:07:16;;;;;;;3.43;2.90;;;26.70;35.10;;;;;;5037851;28;20996;-50
2021/06/02 11:09:57;;;;;;;3.83;2.73;;;26.50;35.50;;;;;;5040885;28;20841;-49
2021/06/02 11:12:26;;;;;;;3.23;2.93;;;26.30;35.80;;;;;;5040237;28;20462;-49
2021/06/02 11:14:56;;;;;;;2.63;2.43;;;26.30;37.60;;;;;;5038942;28;20854;-49
2021/06/02 11:17:24;;;;;;;3.20;2.80;;;26.30;38.40;;;;;;5041137;28;20497;-50
2021/06/02 11:19:55;;;;;;;2.87;2.67;;;26.20;38.70;;;;;;5040723;28;20459;-50
2021/06/02 11:22:27;;;;;;;2.30;2.10;;;26.20;38.90;;;;;;5039180;28;20829;-50
2021/06/02 11:24:56;;;;;;;4.77;3.00;;;26.30;37.50;;;;;;5041877;28;20920;-50
2021/06/02 11:27:24;;;;;;;3.90;2.50;;;26.30;38.20;;;;;;5043464;28;20809;-50
2021/06/02 11:29:53;;;;;;;2.60;2.40;;;26.30;37.10;;;;;;5043541;28;20462;-50
2021/06/02 11:32:24;;;;;;;3.27;2.17;;;26.20;33.50;;;;;;5044193;28;20471;-50
2021/06/02 11:35:06;;;;;;;2.33;2.13;;;26.30;33.90;;;;;;5044335;28;21062;-50
2021/06/02 11:37:36;;;;;;;3.63;2.40;;;26.30;34.90;;;;;;5042367;28;20546;-50
2021/06/02 11:40:13;;;;;;;1.93;1.80;;;26.30;34.50;;;;;;5042985;28;20450;-50
2021/06/02 11:42:45;;;;;;;2.07;1.80;;;26.40;34.00;;;;;;5043808;28;20793;-50
2021/06/02 11:45:21;;;;;;;3.47;2.50;;;26.40;33.80;;;;;;5044859;28;20655;-50
2021/06/02 11:47:51;;;;;;;2.03;1.80;;;26.50;33.20;;;;;;5043260;28;20528;-50
2021/06/02 11:50:21;;;;;;;2.23;2.03;;;26.40;31.00;;;;;;5039143;28;20470;-50
2021/06/02 11:52:54;;;;;;;2.20;1.60;;;26.40;30.50;;;;;;5045488;28;20561;-50
2021/06/02 11:55:24;;;;;;;3.80;1.93;;;26.40;29.70;;;;;;5042791;28;20512;-50
2021/06/02 11:57:53;;;;;;;2.13;1.93;;;26.40;31.70;;;;;;5043440;28;20942;-51
2021/06/02 12:00:26;;;;;;;3.83;1.80;;;26.30;31.90;;;;;;5039870;28;20474;-50
2021/06/02 12:03:00;;;;;;;2.30;2.10;;;26.40;32.80;;;;;;5045644;28;20449;-50
2021/06/02 12:05:34;;;;;;;2.60;1.77;;;26.30;32.90;;;;;;5042162;28;20506;-50
2021/06/02 12:08:12;;;;;;;3.67;2.20;;;26.40;32.70;;;;;;5040778;28;20521;-50
2021/06/02 12:10:47;;;;;;;2.40;1.87;;;26.40;33.00;;;;;;5044098;28;20468;-50
2021/06/02 12:13:29;;;;;;;2.20;1.80;;;26.40;31.40;;;;;;5042869;28;20464;-50
2021/06/02 12:16:03;;;;;;;2.10;1.90;;;26.40;31.50;;;;;;5039725;28;20517;-49
2021/06/02 12:18:34;;;;;;;2.80;2.10;;;26.40;31.50;;;;;;5044456;28;20449;-50
2021/06/02 12:21:16;;;;;;;2.40;2.20;;;26.30;31.00;;;;;;5043401;28;20450;-50
2021/06/02 12:23:47;;;;;;;2.03;1.83;;;26.30;31.50;;;;;;5046617;28;20469;-50
2021/06/02 12:26:22;;;;;;;2.50;2.30;;;26.30;31.30;;;;;;5041347;28;20878;-50
2021/06/02 12:28:52;;;;;;;1.87;1.77;;;26.30;31.70;;;;;;5042093;28;20499;-49
2021/06/02 12:31:34;;;;;;;2.37;2.17;;;26.40;31.50;;;;;;5041777;28;21000;-49
2021/06/02 12:34:24;;;;;;;1.90;1.70;;;26.40;30.60;;;;;;5044859;28;20454;-49
2021/06/02 12:36:57;;;;;;;2.87;1.63;;;26.40;30.70;;;;;;5042304;28;20973;-49
2021/06/02 12:39:28;;;;;;;4.23;2.00;;;26.40;30.70;;;;;;5042641;28;20996;-49
2021/06/02 12:41:58;;;;;;;3.30;2.00;;;26.40;31.00;;;;;;5042192;28;20810;-49
2021/06/02 12:44:29;;;;;;;2.30;1.63;;;26.50;31.30;;;;;;5041284;28;20466;-49
2021/06/02 12:47:04;;;;;;;2.20;1.43;;;26.50;30.80;;;;;;5043522;28;20946;-49
2021/06/02 12:49:32;;;;;;;1.83;1.57;;;26.50;29.90;;;;;;5040235;28;20468;-49
2021/06/02 12:52:03;;;;;;;1.70;1.60;;;26.50;29.80;;;;;;5041357;28;20849;-50
2021/06/02 12:54:32;;;;;;;2.60;2.27;;;26.50;30.40;;;;;;5038630;28;20936;-49
2021/06/02 12:57:00;;;;;;;2.40;2.20;;;26.60;31.00;;;;;;5044821;28;20482;-49
2021/06/02 12:59:32;;;;;;;2.20;1.70;;;26.60;31.70;;;;;;5040925;28;20454;-49
2021/06/02 13:02:03;;;;;;;2.10;1.87;;;26.50;29.70;;;;;;5041623;28;20541;-49
2021/06/02 13:04:33;;;;;;;1.60;1.50;;;26.60;30.10;;;;;;5042116;28;20457;-49
2021/06/02 13:07:02;;;;;;;2.80;1.70;;;26.60;30.20;;;;;;5042083;28;20818;-49
2021/06/02 13:09:30;;;;;;;2.27;2.07;;;26.60;30.10;;;;;;5039882;28;20497;-49
2021/06/02 13:12:02;;;;;;;1.60;1.47;;;26.60;29.70;;;;;;5040814;28;20454;-49
2021/06/02 13:14:38;;;;;;;1.73;1.43;;;26.60;28.50;;;;;;5041815;28;20453;-49
2021/06/02 13:17:06;;;;;;;2.57;1.50;;;26.60;28.40;;;;;;5039939;28;20948;-49
2021/06/02 13:19:41;;;;;;;1.90;1.53;;;26.70;26.50;;;;;;5040005;28;20455;-49
2021/06/02 13:22:21;;;;;;;2.83;1.80;;;26.70;26.50;;;;;;5041553;28;20796;-50
2021/06/02 13:25:01;;;;;;;1.60;1.50;;;26.70;26.50;;;;;;5041125;28;20866;-49
2021/06/02 13:27:30;;;;;;;2.33;1.77;;;26.70;26.40;;;;;;5043716;28;20475;-49
2021/06/02 13:30:01;;;;;;;1.90;1.80;;;26.70;27.30;;;;;;5038639;28;20460;-49
2021/06/02 13:32:29;;;;;;;1.50;1.30;;;26.80;30.20;;;;;;5039391;28;20481;-49
2021/06/02 13:35:17;;;;;;;2.43;1.60;;;26.90;30.40;;;;;;5042143;28;20454;-49
2021/06/02 13:37:47;;;;;;;3.23;2.03;;;26.90;29.30;;;;;;5048381;28;20491;-50
2021/06/02 13:40:21;;;;;;;1.70;1.60;;;26.80;28.40;;;;;;5044513;28;20455;-49